createdAt,value
2022-09-07T00:01:20.645Z,26.02
2022-09-07T00:03:54.484Z,25.94
2022-09-07T00:06:23.751Z,25.98
2022-09-07T00:08:53.545Z,26.00
2022-09-07T00:11:21.959Z,25.96
2022-09-07T00:13:50.634Z,25.93
2022-09-07T00:16:30.736Z,25.99
2022-09-07T00:19:02.087Z,25.94
2022-09-07T00:21:31.514Z,25.87
2022-09-07T00:24:00.642Z,25.87
2022-09-07T00:26:31.355Z,25.89
2022-09-07T00:29:19.183Z,25.80
2022-09-07T00:31:47.303Z,25.84
2022-09-07T00:34:16.589Z,25.80
2022-09-07T00:36:45.126Z,25.75
2022-09-07T00:39:14.296Z,25.79
2022-09-07T00:41:42.717Z,25.81
2022-09-07T00:44:45.012Z,25.78
2022-09-07T00:47:20.240Z,25.70
2022-09-07T00:49:58.653Z,25.66
2022-09-07T00:52:28.506Z,25.59
2022-09-07T00:55:02.714Z,25.27
2022-09-07T00:57:31.425Z,25.43
2022-09-07T01:00:00.241Z,25.51
2022-09-07T01:02:28.238Z,25.47
2022-09-07T01:05:09.588Z,25.57
2022-09-07T01:07:37.928Z,25.33
2022-09-07T01:10:07.746Z,25.47
2022-09-07T01:12:35.799Z,25.54
2022-09-07T01:15:04.873Z,25.58
2022-09-07T01:17:47.223Z,25.63
2022-09-07T01:20:50.608Z,25.64
2022-09-07T01:24:15.150Z,25.57
2022-09-07T01:27:57.075Z,25.48
2022-09-07T01:30:25.975Z,25.45
2022-09-07T01:33:33.531Z,25.50
2022-09-07T01:36:13.533Z,25.43
2022-09-07T01:38:56.624Z,25.37
2022-09-07T01:41:54.808Z,25.32
2022-09-07T01:44:58.307Z,25.34
2022-09-07T01:47:46.285Z,25.38
2022-09-07T01:50:39.394Z,25.38
2022-09-07T01:53:24.939Z,25.44
2022-09-07T01:56:05.207Z,25.35
2022-09-07T01:58:56.303Z,25.46
2022-09-07T02:01:34.039Z,25.48
2022-09-07T02:04:31.518Z,25.54
2022-09-07T02:07:35.857Z,25.55
2022-09-07T02:10:35.138Z,25.58
2022-09-07T02:13:34.987Z,25.64
2022-09-07T02:16:29.880Z,25.56
2022-09-07T02:19:08.167Z,25.65
2022-09-07T02:21:48.556Z,25.68
2022-09-07T02:24:41.809Z,25.64
2022-09-07T02:27:22.215Z,25.68
2022-09-07T08:34:01.887Z,28.02
2022-09-07T08:36:31.748Z,28.20
2022-09-07T08:39:00.201Z,28.19
2022-09-07T08:42:12.406Z,28.36
2022-09-07T08:45:11.856Z,28.39
2022-09-07T08:47:50.537Z,28.43
2022-09-07T08:50:52.197Z,28.54
2022-09-07T08:53:21.873Z,28.36
2022-09-07T08:56:13.991Z,28.59
2022-09-07T08:58:51.351Z,28.72
2022-09-07T09:01:37.586Z,28.80
2022-09-07T09:04:20.758Z,28.86
2022-09-07T09:07:03.397Z,28.82
2022-09-07T09:10:05.914Z,28.91
2022-09-07T09:13:17.147Z,28.97
2022-09-07T09:16:00.588Z,29.01
2022-09-07T09:18:55.504Z,29.05
2022-09-07T09:21:23.485Z,29.05
2022-09-07T09:23:55.367Z,29.15
2022-09-07T09:26:30.607Z,29.20
2022-09-07T09:28:58.706Z,29.24
2022-09-07T09:31:36.064Z,29.37
2022-09-07T09:34:17.694Z,29.49
2022-09-07T09:36:55.997Z,29.57
2022-09-07T09:39:37.696Z,29.63
2022-09-07T09:42:11.548Z,29.65
2022-09-07T09:44:40.099Z,29.65
2022-09-07T09:47:30.971Z,29.73
2022-09-07T09:53:42.789Z,29.75
2022-09-07T09:56:10.979Z,29.74
2022-09-07T10:01:35.446Z,29.84
2022-09-07T10:04:34.744Z,29.93
2022-09-07T10:07:28.442Z,29.92
2022-09-07T10:09:56.932Z,29.92
2022-09-07T10:12:35.746Z,30.01
2022-09-07T10:15:08.898Z,30.00
2022-09-07T10:17:43.359Z,29.98
2022-09-07T10:20:16.793Z,30.05
2022-09-07T10:22:51.948Z,30.10
2022-09-07T10:25:41.555Z,30.10
2022-09-07T10:28:12.866Z,30.07
2022-09-07T10:31:31.824Z,30.11
2022-09-07T10:34:27.329Z,30.15
2022-09-07T10:37:05.798Z,30.19
2022-09-07T10:39:42.931Z,30.25
2022-09-07T10:42:33.987Z,30.27
2022-09-07T10:45:29.083Z,30.26
2022-09-07T10:56:16.960Z,30.36
2022-09-07T10:59:15.774Z,30.45
2022-09-07T11:02:03.483Z,30.52
2022-09-07T11:04:54.634Z,30.58
2022-09-07T11:08:05.052Z,30.63
2022-09-07T11:11:01.757Z,30.66
2022-09-07T11:13:50.193Z,30.64
2022-09-07T11:16:53.716Z,30.73
2022-09-07T11:19:55.196Z,30.77
2022-09-07T11:22:46.595Z,30.79
2022-09-07T11:25:30.566Z,30.65
2022-09-07T11:28:07.630Z,30.80
2022-09-07T11:31:00.361Z,30.86
2022-09-07T11:33:41.291Z,30.83
2022-09-07T11:36:16.815Z,30.81
2022-09-07T11:39:13.043Z,30.87
2022-09-07T11:45:22.108Z,30.96
2022-09-07T11:48:31.184Z,30.97
2022-09-07T11:51:08.912Z,30.98
2022-09-07T11:53:44.140Z,31.05
2022-09-07T11:56:37.644Z,31.08
2022-09-07T11:59:19.638Z,31.09
2022-09-07T12:02:58.389Z,31.07
2022-09-07T12:06:12.743Z,31.05
2022-09-07T12:09:09.748Z,31.08
2022-09-07T12:11:46.777Z,31.13
2022-09-07T12:14:42.481Z,31.17
2022-09-07T12:17:44.359Z,31.23
2022-09-07T12:20:14.686Z,31.19
2022-09-07T12:23:05.945Z,31.26
2022-09-07T12:25:34.988Z,31.26
2022-09-07T12:28:03.277Z,31.32
2022-09-07T12:30:32.160Z,31.36
2022-09-07T12:33:18.526Z,31.36
2022-09-07T12:35:46.929Z,31.40
2022-09-07T12:38:18.650Z,31.49
2022-09-07T12:40:58.812Z,31.51
2022-09-07T12:43:47.012Z,31.58
2022-09-07T12:46:35.048Z,31.63
2022-09-07T12:49:29.749Z,31.63
2022-09-07T12:52:45.883Z,31.70
2022-09-07T12:59:04.964Z,31.77
2022-09-07T13:01:44.413Z,31.64
2022-09-07T13:04:22.938Z,31.87
2022-09-07T13:07:27.915Z,32.00
2022-09-07T13:09:59.243Z,32.05
2022-09-07T13:13:00.372Z,32.13
2022-09-07T13:16:14.453Z,32.21
2022-09-07T13:18:47.139Z,32.24
2022-09-07T13:21:17.413Z,32.29
2022-09-07T13:27:11.087Z,32.38
2022-09-07T13:29:42.151Z,32.42
2022-09-07T13:33:07.995Z,32.44
2022-09-07T13:35:20.595Z,32.38
2022-09-07T13:38:01.705Z,32.35
2022-09-07T13:40:34.412Z,32.08
2022-09-07T13:43:04.434Z,32.18
2022-09-07T13:45:48.511Z,32.28
2022-09-07T13:48:37.464Z,32.28
2022-09-07T13:51:29.681Z,32.33
2022-09-07T13:54:21.953Z,32.34
2022-09-07T13:57:30.776Z,32.24
2022-09-07T13:59:59.258Z,32.11
2022-09-07T14:02:33.493Z,32.14
2022-09-07T14:05:04.293Z,32.10
2022-09-07T14:07:32.513Z,32.07
2022-09-07T14:10:13.284Z,32.18
2022-09-07T14:12:51.344Z,32.18
2022-09-07T14:15:45.320Z,32.21
2022-09-07T14:18:44.376Z,32.14
2022-09-07T14:21:19.056Z,32.11
2022-09-07T14:23:51.397Z,32.15
2022-09-07T14:26:23.021Z,32.18
2022-09-07T14:28:55.146Z,32.21
2022-09-07T14:31:25.332Z,32.29
2022-09-07T14:33:58.278Z,32.34
2022-09-07T14:36:45.227Z,32.35
2022-09-07T14:39:19.454Z,32.34
2022-09-07T14:41:48.103Z,32.33
2022-09-07T14:44:39.012Z,32.37
2022-09-07T14:47:29.113Z,32.37
2022-09-07T14:50:06.010Z,32.39
2022-09-07T14:53:33.288Z,32.47
2022-09-07T14:55:38.186Z,32.51
2022-09-07T14:58:14.663Z,32.57
2022-09-07T15:00:46.275Z,32.61
2022-09-07T15:03:51.200Z,32.67
2022-09-07T15:09:39.726Z,32.66
2022-09-07T15:12:33.077Z,32.67
2022-09-07T15:15:26.583Z,32.69
2022-09-07T15:18:04.541Z,32.64
2022-09-07T15:20:44.064Z,32.68
2022-09-07T15:23:19.568Z,32.72
2022-09-07T15:25:54.250Z,32.69
2022-09-07T15:34:16.109Z,32.51
2022-09-07T15:36:51.312Z,32.43
2022-09-07T15:39:28.261Z,32.33
2022-09-07T15:42:00.160Z,32.19
2022-09-07T15:44:46.514Z,32.08
2022-09-07T15:50:03.355Z,31.92
2022-09-07T15:52:35.786Z,31.85
2022-09-07T15:55:04.289Z,31.76
2022-09-07T16:00:20.998Z,31.60
2022-09-07T16:03:06.800Z,31.47
2022-09-07T16:05:35.223Z,31.40
2022-09-07T16:10:54.238Z,31.21
2022-09-07T16:13:24.610Z,31.15
2022-09-07T16:15:52.591Z,31.07
2022-09-07T16:18:20.854Z,31.00
2022-09-07T16:20:52.587Z,30.92
2022-09-07T16:23:21.838Z,30.83
2022-09-07T16:25:59.056Z,30.75
2022-09-07T16:28:28.935Z,30.64
2022-09-07T16:30:57.431Z,30.53
2022-09-07T16:33:33.150Z,30.44
2022-09-07T16:36:16.282Z,30.36
2022-09-07T16:38:48.396Z,30.23
2022-09-07T16:41:23.165Z,30.19
2022-09-07T16:43:51.490Z,30.08
2022-09-07T16:46:23.932Z,30.05
2022-09-07T16:48:54.412Z,29.95
2022-09-07T16:51:24.897Z,29.88
2022-09-07T16:53:58.880Z,29.83
2022-09-07T16:56:33.695Z,29.76
2022-09-07T16:59:08.887Z,29.67
2022-09-07T17:01:38.293Z,29.55
2022-09-07T17:04:10.663Z,29.50
2022-09-07T17:06:40.304Z,29.46
2022-09-07T17:09:10.752Z,29.38
2022-09-07T17:11:39.127Z,29.27
2022-09-07T17:14:07.466Z,29.23
2022-09-07T17:16:41.054Z,29.26
2022-09-07T17:22:01.234Z,29.11
2022-09-07T17:24:32.203Z,29.13
2022-09-07T17:27:01.261Z,28.85
2022-09-07T17:29:33.888Z,28.94
2022-09-07T17:34:55.634Z,28.95
2022-09-07T17:37:23.849Z,28.96
2022-09-07T17:39:52.174Z,28.99
2022-09-07T17:42:22.653Z,28.99
2022-09-07T17:44:53.996Z,28.94
2022-09-07T17:47:23.402Z,28.93
2022-09-07T17:49:51.951Z,28.90
2022-09-07T17:52:19.972Z,28.90
2022-09-07T17:54:48.147Z,28.92
2022-09-07T17:57:17.038Z,28.94
2022-09-07T18:02:38.764Z,28.88
2022-09-07T18:05:07.504Z,28.86
2022-09-07T18:07:35.326Z,28.83
2022-09-07T18:10:03.369Z,28.78
2022-09-07T18:12:33.022Z,28.73
2022-09-07T18:15:01.287Z,28.66
2022-09-07T18:17:30.175Z,28.60
2022-09-07T18:19:58.841Z,28.52
2022-09-07T18:22:30.549Z,28.38
2022-09-07T18:25:00.685Z,28.39
2022-09-07T18:27:28.631Z,28.30
2022-09-07T18:29:57.022Z,28.26
2022-09-07T18:32:26.265Z,28.17
2022-09-07T18:34:54.671Z,28.12
2022-09-07T18:37:22.881Z,28.07
2022-09-07T18:39:51.015Z,28.03
2022-09-07T18:42:19.025Z,27.96
2022-09-07T18:47:39.953Z,27.74
2022-09-07T18:50:11.434Z,27.62
2022-09-07T18:53:04.131Z,27.46
2022-09-07T18:55:28.654Z,27.27
2022-09-07T18:57:57.233Z,27.24
2022-09-07T19:00:26.333Z,27.18
2022-09-07T19:02:55.864Z,27.15
2022-09-07T19:08:15.315Z,27.09
2022-09-07T19:10:44.863Z,27.04
2022-09-07T19:13:14.401Z,27.00
2022-09-07T19:15:42.971Z,26.90
2022-09-07T19:18:12.190Z,26.84
2022-09-07T19:20:41.278Z,26.75
2022-09-07T19:23:09.612Z,26.68
2022-09-07T19:25:45.045Z,26.65
2022-09-07T19:28:13.476Z,26.51
2022-09-07T19:30:42.020Z,26.45
2022-09-07T19:33:12.821Z,26.29
2022-09-07T19:35:41.666Z,26.26
2022-09-07T19:38:10.373Z,26.22
2022-09-07T19:40:39.865Z,26.19
2022-09-07T19:43:08.963Z,26.17
2022-09-07T19:45:41.631Z,26.17
2022-09-07T19:48:09.759Z,26.14
2022-09-07T19:50:38.538Z,26.16
2022-09-07T19:53:08.470Z,26.13
2022-09-07T19:55:36.785Z,26.12
2022-09-07T19:58:06.048Z,26.11
2022-09-07T20:00:34.606Z,26.12
2022-09-07T20:03:03.143Z,26.13
2022-09-07T20:05:32.226Z,26.18
2022-09-07T20:08:01.520Z,26.17
2022-09-07T20:10:32.922Z,26.18
2022-09-07T20:13:01.067Z,25.91
2022-09-07T20:15:29.970Z,26.05
2022-09-07T20:17:59.356Z,26.09
2022-09-07T20:20:27.212Z,26.12
2022-09-07T20:22:55.059Z,26.15
2022-09-07T20:25:23.764Z,26.15
2022-09-07T20:27:51.540Z,26.16
2022-09-07T20:30:19.468Z,26.13
2022-09-07T20:32:51.723Z,26.14
2022-09-07T20:35:20.156Z,25.85
2022-09-07T20:37:48.817Z,25.94
2022-09-07T20:40:17.026Z,25.98
2022-09-07T20:42:46.187Z,25.97
2022-09-07T20:45:14.643Z,25.95
2022-09-07T20:47:44.814Z,25.96
2022-09-07T20:50:12.728Z,25.94
2022-09-07T20:52:41.410Z,25.95
2022-09-07T20:55:09.887Z,25.91
2022-09-07T20:57:38.044Z,25.93
2022-09-07T21:00:11.156Z,25.92
2022-09-07T21:02:39.366Z,25.89
2022-09-07T21:05:09.440Z,25.91
2022-09-07T21:07:41.710Z,25.89
2022-09-07T21:10:10.375Z,25.88
2022-09-07T21:12:38.485Z,25.87
2022-09-07T21:15:08.931Z,25.87
2022-09-07T21:17:36.773Z,25.86
2022-09-07T21:20:05.851Z,25.85
2022-09-07T21:22:33.502Z,25.87
2022-09-07T21:25:02.241Z,25.87
2022-09-07T21:27:38.084Z,25.85
2022-09-07T21:30:07.514Z,25.80
2022-09-07T21:32:35.350Z,25.71
2022-09-07T21:35:03.132Z,25.60
2022-09-07T21:37:31.775Z,25.51
2022-09-07T21:40:01.490Z,25.46
2022-09-07T21:42:30.486Z,25.44
2022-09-07T21:44:59.578Z,25.41
2022-09-07T21:47:27.696Z,25.44
2022-09-07T21:49:55.876Z,25.47
2022-09-07T21:52:24.351Z,25.51
2022-09-07T21:54:53.928Z,25.49
2022-09-07T21:57:22.306Z,25.49
2022-09-07T21:59:50.439Z,25.47
2022-09-07T22:02:18.752Z,25.52
2022-09-07T22:04:47.286Z,25.53
2022-09-07T22:07:15.350Z,25.51
2022-09-07T22:09:43.837Z,25.46
2022-09-07T22:12:11.603Z,25.50
2022-09-07T22:14:39.838Z,25.49
2022-09-07T22:17:09.581Z,25.50
2022-09-07T22:19:39.634Z,25.48
2022-09-07T22:22:08.539Z,25.43
2022-09-07T22:24:36.281Z,25.42
2022-09-07T22:27:05.038Z,25.41
2022-09-07T22:29:33.385Z,25.32
2022-09-07T22:32:01.395Z,25.28
2022-09-07T22:34:29.603Z,25.32
2022-09-07T22:36:57.406Z,25.32
2022-09-07T22:39:25.634Z,25.33
2022-09-07T22:41:53.796Z,25.32
2022-09-07T22:44:21.999Z,25.32
2022-09-07T22:46:50.563Z,25.32
2022-09-07T22:49:29.576Z,25.37
2022-09-07T22:51:57.961Z,25.35
2022-09-07T22:54:25.756Z,25.30
2022-09-07T22:56:53.628Z,25.30
2022-09-07T22:59:22.374Z,25.26
2022-09-07T23:01:50.725Z,25.26
2022-09-07T23:04:18.631Z,25.20
2022-09-07T23:06:46.913Z,25.18
2022-09-07T23:09:18.290Z,25.17
2022-09-07T23:11:48.722Z,25.12
2022-09-07T23:14:20.310Z,25.12
2022-09-07T23:16:49.047Z,25.06
2022-09-07T23:19:19.767Z,25.12
2022-09-07T23:21:48.085Z,25.09
2022-09-07T23:24:18.500Z,25.10
2022-09-07T23:26:46.973Z,25.09
2022-09-07T23:29:15.849Z,25.10
2022-09-07T23:31:47.263Z,25.13
2022-09-07T23:34:15.809Z,25.09
2022-09-07T23:36:43.606Z,25.09
2022-09-07T23:39:11.408Z,25.11
2022-09-07T23:41:40.345Z,25.09
2022-09-07T23:44:09.513Z,25.02
2022-09-07T23:46:37.853Z,25.02
2022-09-07T23:49:06.285Z,25.00
2022-09-07T23:51:34.459Z,25.03
2022-09-07T23:54:02.832Z,25.05
2022-09-07T23:56:33.014Z,25.05
2022-09-07T23:59:01.158Z,25.00
